sensor_id;sensor_type;location;lat;lon;timestamp;P1;durP1;ratioP1;P2;durP2;ratioP2
26920;SDS011;14483;47.844;9.660;2022-08-21T00:00:51;2.03;;;0.88;;
26920;SDS011;14483;47.844;9.660;2022-08-21T00:03:19;3.08;;;0.85;;
26920;SDS011;14483;47.844;9.660;2022-08-21T00:05:46;7.13;;;1.02;;
26920;SDS011;14483;47.844;9.660;2022-08-21T00:08:14;1.65;;;0.63;;
26920;SDS011;14483;47.844;9.660;2022-08-21T00:10:41;3.42;;;0.80;;
26920;SDS011;14483;47.844;9.660;2022-08-21T00:13:07;1.45;;;0.65;;
26920;SDS011;14483;47.844;9.660;2022-08-21T00:15:35;3.92;;;0.90;;
26920;SDS011;14483;47.844;9.660;2022-08-21T00:18:02;0.73;;;0.50;;
26920;SDS011;14483;47.844;9.660;2022-08-21T00:20:30;1.00;;;0.60;;
26920;SDS011;14483;47.844;9.660;2022-08-21T00:22:56;1.15;;;0.57;;
26920;SDS011;14483;47.844;9.660;2022-08-21T00:25:23;1.70;;;0.60;;
26920;SDS011;14483;47.844;9.660;2022-08-21T00:27:49;4.53;;;0.80;;
26920;SDS011;14483;47.844;9.660;2022-08-21T00:30:17;2.92;;;0.57;;
26920;SDS011;14483;47.844;9.660;2022-08-21T00:32:44;2.60;;;0.60;;
26920;SDS011;14483;47.844;9.660;2022-08-21T00:35:11;1.45;;;0.70;;
26920;SDS011;14483;47.844;9.660;2022-08-21T00:37:39;2.97;;;0.55;;
26920;SDS011;14483;47.844;9.660;2022-08-21T00:40:07;4.28;;;0.57;;
26920;SDS011;14483;47.844;9.660;2022-08-21T00:42:34;1.00;;;0.57;;
26920;SDS011;14483;47.844;9.660;2022-08-21T00:45:00;0.90;;;0.60;;
26920;SDS011;14483;47.844;9.660;2022-08-21T00:47:27;1.15;;;0.50;;
26920;SDS011;14483;47.844;9.660;2022-08-21T00:49:53;2.40;;;0.82;;
26920;SDS011;14483;47.844;9.660;2022-08-21T00:52:20;2.95;;;0.68;;
26920;SDS011;14483;47.844;9.660;2022-08-21T00:54:49;2.55;;;0.68;;
26920;SDS011;14483;47.844;9.660;2022-08-21T00:57:17;1.90;;;0.60;;
26920;SDS011;14483;47.844;9.660;2022-08-21T00:59:46;4.60;;;0.65;;
26920;SDS011;14483;47.844;9.660;2022-08-21T01:02:15;0.50;;;0.50;;
26920;SDS011;14483;47.844;9.660;2022-08-21T01:04:42;4.10;;;0.68;;
26920;SDS011;14483;47.844;9.660;2022-08-21T01:07:08;3.22;;;0.60;;
26920;SDS011;14483;47.844;9.660;2022-08-21T01:09:35;0.63;;;0.50;;
26920;SDS011;14483;47.844;9.660;2022-08-21T01:12:03;0.88;;;0.50;;
26920;SDS011;14483;47.844;9.660;2022-08-21T01:14:29;4.70;;;0.80;;
26920;SDS011;14483;47.844;9.660;2022-08-21T01:16:56;1.65;;;0.60;;
26920;SDS011;14483;47.844;9.660;2022-08-21T01:19:24;0.63;;;0.40;;
26920;SDS011;14483;47.844;9.660;2022-08-21T01:21:52;3.63;;;0.60;;
26920;SDS011;14483;47.844;9.660;2022-08-21T01:24:18;2.67;;;0.60;;
26920;SDS011;14483;47.844;9.660;2022-08-21T01:26:45;3.30;;;0.60;;
26920;SDS011;14483;47.844;9.660;2022-08-21T01:29:13;1.40;;;0.63;;
26920;SDS011;14483;47.844;9.660;2022-08-21T01:31:41;0.90;;;0.50;;
26920;SDS011;14483;47.844;9.660;2022-08-21T01:34:09;2.17;;;0.70;;
26920;SDS011;14483;47.844;9.660;2022-08-21T01:36:36;2.00;;;0.60;;
26920;SDS011;14483;47.844;9.660;2022-08-21T01:39:04;1.23;;;0.60;;
26920;SDS011;14483;47.844;9.660;2022-08-21T01:41:31;2.50;;;0.70;;
26920;SDS011;14483;47.844;9.660;2022-08-21T01:43:57;3.67;;;0.70;;
26920;SDS011;14483;47.844;9.660;2022-08-21T01:46:24;1.17;;;0.80;;
26920;SDS011;14483;47.844;9.660;2022-08-21T01:48:50;1.27;;;0.77;;
26920;SDS011;14483;47.844;9.660;2022-08-21T01:51:16;6.47;;;1.52;;
26920;SDS011;14483;47.844;9.660;2022-08-21T01:53:43;1.60;;;1.00;;
26920;SDS011;14483;47.844;9.660;2022-08-21T01:56:12;1.88;;;0.90;;
26920;SDS011;14483;47.844;9.660;2022-08-21T01:58:38;3.70;;;1.10;;
26920;SDS011;14483;47.844;9.660;2022-08-21T02:01:05;2.58;;;1.42;;
26920;SDS011;14483;47.844;9.660;2022-08-21T02:03:31;3.17;;;1.20;;
26920;SDS011;14483;47.844;9.660;2022-08-21T02:05:58;2.92;;;1.48;;
26920;SDS011;14483;47.844;9.660;2022-08-21T02:08:24;2.42;;;1.40;;
26920;SDS011;14483;47.844;9.660;2022-08-21T02:10:51;4.78;;;1.67;;
26920;SDS011;14483;47.844;9.660;2022-08-21T02:13:19;4.70;;;1.10;;
26920;SDS011;14483;47.844;9.660;2022-08-21T02:15:46;2.33;;;1.10;;
26920;SDS011;14483;47.844;9.660;2022-08-21T02:18:12;5.05;;;1.10;;
26920;SDS011;14483;47.844;9.660;2022-08-21T02:20:39;3.65;;;0.88;;
26920;SDS011;14483;47.844;9.660;2022-08-21T02:23:07;3.47;;;1.15;;
26920;SDS011;14483;47.844;9.660;2022-08-21T02:25:34;1.95;;;1.20;;
26920;SDS011;14483;47.844;9.660;2022-08-21T02:28:02;2.70;;;0.85;;
26920;SDS011;14483;47.844;9.660;2022-08-21T02:30:31;6.07;;;1.08;;
26920;SDS011;14483;47.844;9.660;2022-08-21T02:32:57;1.60;;;0.90;;
26920;SDS011;14483;47.844;9.660;2022-08-21T02:35:24;1.05;;;0.70;;
26920;SDS011;14483;47.844;9.660;2022-08-21T02:37:52;1.40;;;0.82;;
26920;SDS011;14483;47.844;9.660;2022-08-21T02:40:21;1.88;;;0.70;;
26920;SDS011;14483;47.844;9.660;2022-08-21T02:42:48;4.60;;;1.08;;
26920;SDS011;14483;47.844;9.660;2022-08-21T02:45:15;1.08;;;0.70;;
26920;SDS011;14483;47.844;9.660;2022-08-21T02:47:47;1.58;;;0.80;;
26920;SDS011;14483;47.844;9.660;2022-08-21T02:50:17;1.65;;;0.77;;
26920;SDS011;14483;47.844;9.660;2022-08-21T02:52:43;7.03;;;0.98;;
26920;SDS011;14483;47.844;9.660;2022-08-21T02:55:10;1.95;;;0.82;;
26920;SDS011;14483;47.844;9.660;2022-08-21T02:57:37;2.05;;;0.80;;
26920;SDS011;14483;47.844;9.660;2022-08-21T03:00:04;0.90;;;0.60;;
26920;SDS011;14483;47.844;9.660;2022-08-21T03:02:31;1.98;;;1.05;;
26920;SDS011;14483;47.844;9.660;2022-08-21T03:04:59;0.55;;;0.40;;
26920;SDS011;14483;47.844;9.660;2022-08-21T03:07:25;2.15;;;0.50;;
26920;SDS011;14483;47.844;9.660;2022-08-21T03:09:52;2.72;;;0.50;;
26920;SDS011;14483;47.844;9.660;2022-08-21T03:12:18;1.67;;;0.40;;
26920;SDS011;14483;47.844;9.660;2022-08-21T03:14:44;3.00;;;0.43;;
26920;SDS011;14483;47.844;9.660;2022-08-21T03:17:11;3.85;;;0.65;;
26920;SDS011;14483;47.844;9.660;2022-08-21T03:19:37;1.00;;;0.52;;
26920;SDS011;14483;47.844;9.660;2022-08-21T03:22:05;0.90;;;0.50;;
26920;SDS011;14483;47.844;9.660;2022-08-21T03:24:32;2.15;;;0.43;;
26920;SDS011;14483;47.844;9.660;2022-08-21T03:26:58;1.50;;;0.57;;
26920;SDS011;14483;47.844;9.660;2022-08-21T03:29:24;1.55;;;0.50;;
26920;SDS011;14483;47.844;9.660;2022-08-21T03:31:51;2.92;;;0.85;;
26920;SDS011;14483;47.844;9.660;2022-08-21T03:34:18;3.85;;;0.60;;
26920;SDS011;14483;47.844;9.660;2022-08-21T03:36:45;0.95;;;0.40;;
26920;SDS011;14483;47.844;9.660;2022-08-21T03:39:12;0.90;;;0.50;;
26920;SDS011;14483;47.844;9.660;2022-08-21T03:41:39;1.70;;;0.63;;
26920;SDS011;14483;47.844;9.660;2022-08-21T03:44:06;4.65;;;0.65;;
26920;SDS011;14483;47.844;9.660;2022-08-21T03:46:33;1.15;;;0.50;;
26920;SDS011;14483;47.844;9.660;2022-08-21T03:48:59;1.05;;;0.43;;
26920;SDS011;14483;47.844;9.660;2022-08-21T03:51:26;2.75;;;0.40;;
26920;SDS011;14483;47.844;9.660;2022-08-21T03:53:52;0.50;;;0.40;;
26920;SDS011;14483;47.844;9.660;2022-08-21T03:56:20;0.70;;;0.38;;
26920;SDS011;14483;47.844;9.660;2022-08-21T03:58:47;0.70;;;0.45;;
26920;SDS011;14483;47.844;9.660;2022-08-21T04:01:13;2.60;;;0.60;;
26920;SDS011;14483;47.844;9.660;2022-08-21T04:03:40;0.98;;;0.50;;
26920;SDS011;14483;47.844;9.660;2022-08-21T04:06:06;0.88;;;0.45;;
26920;SDS011;14483;47.844;9.660;2022-08-21T04:08:33;2.53;;;0.55;;
26920;SDS011;14483;47.844;9.660;2022-08-21T04:11:00;1.15;;;0.68;;
26920;SDS011;14483;47.844;9.660;2022-08-21T04:13:28;2.22;;;0.57;;
26920;SDS011;14483;47.844;9.660;2022-08-21T04:15:55;2.67;;;0.70;;
26920;SDS011;14483;47.844;9.660;2022-08-21T04:18:23;0.98;;;0.50;;
26920;SDS011;14483;47.844;9.660;2022-08-21T04:20:50;1.80;;;0.50;;
26920;SDS011;14483;47.844;9.660;2022-08-21T04:23:17;3.17;;;0.73;;
26920;SDS011;14483;47.844;9.660;2022-08-21T04:25:43;0.55;;;0.40;;
26920;SDS011;14483;47.844;9.660;2022-08-21T04:28:10;0.90;;;0.55;;
26920;SDS011;14483;47.844;9.660;2022-08-21T04:30:38;4.97;;;0.70;;
26920;SDS011;14483;47.844;9.660;2022-08-21T04:33:04;2.00;;;0.60;;
26920;SDS011;14483;47.844;9.660;2022-08-21T04:35:31;0.88;;;0.50;;
26920;SDS011;14483;47.844;9.660;2022-08-21T04:37:57;1.25;;;0.60;;
26920;SDS011;14483;47.844;9.660;2022-08-21T04:40:24;4.90;;;1.17;;
26920;SDS011;14483;47.844;9.660;2022-08-21T04:42:52;1.60;;;0.55;;
26920;SDS011;14483;47.844;9.660;2022-08-21T04:45:20;3.13;;;0.70;;
26920;SDS011;14483;47.844;9.660;2022-08-21T04:47:49;2.75;;;0.60;;
26920;SDS011;14483;47.844;9.660;2022-08-21T04:50:16;1.63;;;0.90;;
26920;SDS011;14483;47.844;9.660;2022-08-21T04:52:42;2.00;;;0.80;;
26920;SDS011;14483;47.844;9.660;2022-08-21T04:55:09;2.47;;;0.70;;
26920;SDS011;14483;47.844;9.660;2022-08-21T04:57:36;1.77;;;0.85;;
26920;SDS011;14483;47.844;9.660;2022-08-21T05:00:02;1.80;;;1.00;;
26920;SDS011;14483;47.844;9.660;2022-08-21T05:02:30;1.80;;;0.80;;
26920;SDS011;14483;47.844;9.660;2022-08-21T05:04:59;0.80;;;0.50;;
26920;SDS011;14483;47.844;9.660;2022-08-21T05:07:26;1.13;;;0.50;;
26920;SDS011;14483;47.844;9.660;2022-08-21T05:09:54;2.13;;;0.70;;
26920;SDS011;14483;47.844;9.660;2022-08-21T05:12:21;1.63;;;0.55;;
26920;SDS011;14483;47.844;9.660;2022-08-21T05:14:47;1.80;;;0.50;;
26920;SDS011;14483;47.844;9.660;2022-08-21T05:17:15;1.75;;;0.60;;
26920;SDS011;14483;47.844;9.660;2022-08-21T05:19:41;1.63;;;0.50;;
26920;SDS011;14483;47.844;9.660;2022-08-21T05:22:09;2.33;;;0.60;;
26920;SDS011;14483;47.844;9.660;2022-08-21T05:24:35;2.92;;;0.70;;
26920;SDS011;14483;47.844;9.660;2022-08-21T05:27:03;1.77;;;0.60;;
26920;SDS011;14483;47.844;9.660;2022-08-21T05:29:30;2.00;;;0.52;;
26920;SDS011;14483;47.844;9.660;2022-08-21T05:31:56;1.05;;;0.40;;
26920;SDS011;14483;47.844;9.660;2022-08-21T05:34:23;3.03;;;0.85;;
26920;SDS011;14483;47.844;9.660;2022-08-21T05:36:49;2.75;;;0.70;;
26920;SDS011;14483;47.844;9.660;2022-08-21T05:39:17;3.90;;;0.80;;
26920;SDS011;14483;47.844;9.660;2022-08-21T05:41:43;1.45;;;0.80;;
26920;SDS011;14483;47.844;9.660;2022-08-21T05:44:10;2.35;;;0.73;;
26920;SDS011;14483;47.844;9.660;2022-08-21T05:46:36;2.42;;;1.00;;
26920;SDS011;14483;47.844;9.660;2022-08-21T05:49:02;2.10;;;0.85;;
26920;SDS011;14483;47.844;9.660;2022-08-21T05:51:29;0.90;;;0.57;;
26920;SDS011;14483;47.844;9.660;2022-08-21T05:53:56;0.80;;;0.60;;
26920;SDS011;14483;47.844;9.660;2022-08-21T05:56:23;0.65;;;0.50;;
26920;SDS011;14483;47.844;9.660;2022-08-21T05:58:50;1.83;;;0.60;;
26920;SDS011;14483;47.844;9.660;2022-08-21T06:01:16;1.63;;;0.57;;
26920;SDS011;14483;47.844;9.660;2022-08-21T06:03:43;2.50;;;0.60;;
26920;SDS011;14483;47.844;9.660;2022-08-21T06:06:09;1.02;;;0.70;;
26920;SDS011;14483;47.844;9.660;2022-08-21T06:08:35;2.72;;;0.88;;
26920;SDS011;14483;47.844;9.660;2022-08-21T06:11:02;1.73;;;0.70;;
26920;SDS011;14483;47.844;9.660;2022-08-21T06:13:30;2.10;;;0.90;;
26920;SDS011;14483;47.844;9.660;2022-08-21T06:16:01;1.95;;;0.80;;
26920;SDS011;14483;47.844;9.660;2022-08-21T06:18:27;6.03;;;2.58;;
26920;SDS011;14483;47.844;9.660;2022-08-21T06:20:53;14.90;;;3.28;;
26920;SDS011;14483;47.844;9.660;2022-08-21T06:23:20;12.20;;;3.88;;
26920;SDS011;14483;47.844;9.660;2022-08-21T06:25:46;7.15;;;3.33;;
26920;SDS011;14483;47.844;9.660;2022-08-21T06:28:13;9.07;;;3.45;;
26920;SDS011;14483;47.844;9.660;2022-08-21T06:30:40;15.23;;;3.90;;
26920;SDS011;14483;47.844;9.660;2022-08-21T06:33:07;8.85;;;3.17;;
26920;SDS011;14483;47.844;9.660;2022-08-21T06:35:34;7.80;;;3.58;;
26920;SDS011;14483;47.844;9.660;2022-08-21T06:38:00;7.50;;;3.92;;
26920;SDS011;14483;47.844;9.660;2022-08-21T06:40:27;7.05;;;3.97;;
26920;SDS011;14483;47.844;9.660;2022-08-21T06:42:54;7.40;;;3.60;;
26920;SDS011;14483;47.844;9.660;2022-08-21T06:45:20;6.85;;;4.13;;
26920;SDS011;14483;47.844;9.660;2022-08-21T06:47:48;7.00;;;4.13;;
26920;SDS011;14483;47.844;9.660;2022-08-21T06:50:15;8.15;;;4.80;;
26920;SDS011;14483;47.844;9.660;2022-08-21T06:52:41;9.82;;;4.40;;
26920;SDS011;14483;47.844;9.660;2022-08-21T06:55:08;6.80;;;3.83;;
26920;SDS011;14483;47.844;9.660;2022-08-21T06:57:35;7.43;;;4.57;;
26920;SDS011;14483;47.844;9.660;2022-08-21T07:00:02;6.55;;;3.92;;
26920;SDS011;14483;47.844;9.660;2022-08-21T07:02:29;6.25;;;3.88;;
26920;SDS011;14483;47.844;9.660;2022-08-21T07:04:57;6.32;;;3.97;;
26920;SDS011;14483;47.844;9.660;2022-08-21T07:07:24;6.28;;;4.10;;
26920;SDS011;14483;47.844;9.660;2022-08-21T07:09:50;5.80;;;3.63;;
26920;SDS011;14483;47.844;9.660;2022-08-21T07:12:16;8.15;;;4.82;;
26920;SDS011;14483;47.844;9.660;2022-08-21T07:14:43;7.50;;;4.43;;
26920;SDS011;14483;47.844;9.660;2022-08-21T07:17:09;6.60;;;4.50;;
26920;SDS011;14483;47.844;9.660;2022-08-21T07:19:35;7.63;;;5.93;;
26920;SDS011;14483;47.844;9.660;2022-08-21T07:22:03;4.70;;;3.03;;
26920;SDS011;14483;47.844;9.660;2022-08-21T07:24:30;5.25;;;3.45;;
26920;SDS011;14483;47.844;9.660;2022-08-21T07:26:56;4.05;;;2.88;;
26920;SDS011;14483;47.844;9.660;2022-08-21T07:29:23;4.25;;;3.33;;
26920;SDS011;14483;47.844;9.660;2022-08-21T07:31:49;3.60;;;2.10;;
26920;SDS011;14483;47.844;9.660;2022-08-21T07:34:15;2.70;;;2.08;;
26920;SDS011;14483;47.844;9.660;2022-08-21T07:36:42;3.58;;;2.67;;
26920;SDS011;14483;47.844;9.660;2022-08-21T07:39:10;3.03;;;2.33;;
26920;SDS011;14483;47.844;9.660;2022-08-21T07:41:36;2.20;;;1.80;;
26920;SDS011;14483;47.844;9.660;2022-08-21T07:44:02;3.53;;;1.75;;
26920;SDS011;14483;47.844;9.660;2022-08-21T07:46:30;3.67;;;2.55;;
26920;SDS011;14483;47.844;9.660;2022-08-21T07:48:57;3.25;;;2.45;;
26920;SDS011;14483;47.844;9.660;2022-08-21T07:51:25;3.58;;;2.47;;
26920;SDS011;14483;47.844;9.660;2022-08-21T07:53:53;3.05;;;1.80;;
26920;SDS011;14483;47.844;9.660;2022-08-21T07:56:21;2.70;;;1.83;;
26920;SDS011;14483;47.844;9.660;2022-08-21T07:58:47;8.02;;;1.77;;
26920;SDS011;14483;47.844;9.660;2022-08-21T08:01:14;2.35;;;1.33;;
26920;SDS011;14483;47.844;9.660;2022-08-21T08:03:40;2.50;;;1.17;;
26920;SDS011;14483;47.844;9.660;2022-08-21T08:06:07;1.63;;;0.98;;
26920;SDS011;14483;47.844;9.660;2022-08-21T08:08:37;2.58;;;1.45;;
26920;SDS011;14483;47.844;9.660;2022-08-21T08:11:03;2.15;;;1.20;;
26920;SDS011;14483;47.844;9.660;2022-08-21T08:13:31;4.78;;;1.17;;
26920;SDS011;14483;47.844;9.660;2022-08-21T08:15:58;2.22;;;1.10;;
26920;SDS011;14483;47.844;9.660;2022-08-21T08:18:24;2.33;;;1.30;;
26920;SDS011;14483;47.844;9.660;2022-08-21T08:20:51;2.70;;;1.48;;
26920;SDS011;14483;47.844;9.660;2022-08-21T08:23:17;2.25;;;1.65;;
26920;SDS011;14483;47.844;9.660;2022-08-21T08:25:43;1.92;;;1.50;;
26920;SDS011;14483;47.844;9.660;2022-08-21T08:28:10;2.88;;;1.40;;
26920;SDS011;14483;47.844;9.660;2022-08-21T08:30:37;2.80;;;1.40;;
26920;SDS011;14483;47.844;9.660;2022-08-21T08:33:04;3.63;;;1.52;;
26920;SDS011;14483;47.844;9.660;2022-08-21T08:35:30;2.72;;;1.38;;
26920;SDS011;14483;47.844;9.660;2022-08-21T08:37:57;2.55;;;1.50;;
26920;SDS011;14483;47.844;9.660;2022-08-21T08:40:25;2.10;;;1.55;;
26920;SDS011;14483;47.844;9.660;2022-08-21T08:42:55;2.33;;;1.52;;
26920;SDS011;14483;47.844;9.660;2022-08-21T08:45:21;2.83;;;1.20;;
26920;SDS011;14483;47.844;9.660;2022-08-21T08:47:51;3.15;;;1.25;;
26920;SDS011;14483;47.844;9.660;2022-08-21T08:50:24;2.45;;;1.35;;
26920;SDS011;14483;47.844;9.660;2022-08-21T08:52:52;1.33;;;0.82;;
26920;SDS011;14483;47.844;9.660;2022-08-21T08:55:23;3.28;;;1.35;;
26920;SDS011;14483;47.844;9.660;2022-08-21T08:57:51;4.07;;;1.10;;
26920;SDS011;14483;47.844;9.660;2022-08-21T09:00:19;2.10;;;1.13;;
26920;SDS011;14483;47.844;9.660;2022-08-21T09:02:46;2.33;;;0.98;;
26920;SDS011;14483;47.844;9.660;2022-08-21T09:05:18;3.45;;;1.23;;
26920;SDS011;14483;47.844;9.660;2022-08-21T09:07:46;2.53;;;1.52;;
26920;SDS011;14483;47.844;9.660;2022-08-21T09:10:16;2.92;;;1.20;;
26920;SDS011;14483;47.844;9.660;2022-08-21T09:12:45;2.35;;;1.20;;
26920;SDS011;14483;47.844;9.660;2022-08-21T09:15:17;2.33;;;1.10;;
26920;SDS011;14483;47.844;9.660;2022-08-21T09:17:55;2.70;;;1.48;;
26920;SDS011;14483;47.844;9.660;2022-08-21T09:20:28;3.70;;;1.17;;
26920;SDS011;14483;47.844;9.660;2022-08-21T09:23:02;2.53;;;1.38;;
26920;SDS011;14483;47.844;9.660;2022-08-21T09:25:32;4.35;;;1.15;;
26920;SDS011;14483;47.844;9.660;2022-08-21T09:27:59;3.03;;;1.05;;
26920;SDS011;14483;47.844;9.660;2022-08-21T09:30:26;3.30;;;1.13;;
26920;SDS011;14483;47.844;9.660;2022-08-21T09:32:53;7.00;;;1.38;;
26920;SDS011;14483;47.844;9.660;2022-08-21T09:35:21;3.70;;;1.40;;
26920;SDS011;14483;47.844;9.660;2022-08-21T09:37:50;3.00;;;1.25;;
26920;SDS011;14483;47.844;9.660;2022-08-21T09:40:19;2.53;;;1.00;;
26920;SDS011;14483;47.844;9.660;2022-08-21T09:42:53;3.50;;;1.40;;
26920;SDS011;14483;47.844;9.660;2022-08-21T09:45:20;2.75;;;0.90;;
26920;SDS011;14483;47.844;9.660;2022-08-21T09:47:46;4.55;;;0.85;;
26920;SDS011;14483;47.844;9.660;2022-08-21T09:50:13;4.05;;;1.00;;
26920;SDS011;14483;47.844;9.660;2022-08-21T09:52:44;2.03;;;1.05;;
26920;SDS011;14483;47.844;9.660;2022-08-21T09:55:16;6.38;;;1.33;;
26920;SDS011;14483;47.844;9.660;2022-08-21T09:57:58;6.90;;;1.27;;
26920;SDS011;14483;47.844;9.660;2022-08-21T10:00:26;3.03;;;1.25;;
26920;SDS011;14483;47.844;9.660;2022-08-21T10:02:54;6.05;;;1.20;;
26920;SDS011;14483;47.844;9.660;2022-08-21T10:05:33;3.47;;;1.13;;
26920;SDS011;14483;47.844;9.660;2022-08-21T10:07:59;3.17;;;0.90;;
26920;SDS011;14483;47.844;9.660;2022-08-21T10:10:28;3.53;;;1.20;;
26920;SDS011;14483;47.844;9.660;2022-08-21T10:12:57;4.03;;;1.10;;
26920;SDS011;14483;47.844;9.660;2022-08-21T10:15:27;5.97;;;1.20;;
26920;SDS011;14483;47.844;9.660;2022-08-21T10:18:00;2.65;;;1.00;;
26920;SDS011;14483;47.844;9.660;2022-08-21T10:20:39;2.63;;;0.90;;
26920;SDS011;14483;47.844;9.660;2022-08-21T10:23:08;3.47;;;1.05;;
26920;SDS011;14483;47.844;9.660;2022-08-21T10:25:44;2.40;;;0.80;;
26920;SDS011;14483;47.844;9.660;2022-08-21T10:28:12;2.05;;;1.10;;
26920;SDS011;14483;47.844;9.660;2022-08-21T10:30:42;2.75;;;1.08;;
26920;SDS011;14483;47.844;9.660;2022-08-21T10:33:24;5.55;;;0.88;;
26920;SDS011;14483;47.844;9.660;2022-08-21T10:35:54;2.03;;;0.85;;
26920;SDS011;14483;47.844;9.660;2022-08-21T10:41:17;3.33;;;1.17;;
26920;SDS011;14483;47.844;9.660;2022-08-21T10:43:49;2.15;;;0.70;;
26920;SDS011;14483;47.844;9.660;2022-08-21T10:46:21;1.63;;;0.80;;
26920;SDS011;14483;47.844;9.660;2022-08-21T10:48:51;3.80;;;0.93;;
26920;SDS011;14483;47.844;9.660;2022-08-21T10:51:20;1.60;;;0.70;;
26920;SDS011;14483;47.844;9.660;2022-08-21T10:53:55;2.80;;;1.00;;
26920;SDS011;14483;47.844;9.660;2022-08-21T10:56:24;2.75;;;1.10;;
26920;SDS011;14483;47.844;9.660;2022-08-21T10:59:07;2.10;;;0.90;;
26920;SDS011;14483;47.844;9.660;2022-08-21T11:01:39;3.10;;;0.93;;
26920;SDS011;14483;47.844;9.660;2022-08-21T11:04:10;3.22;;;1.00;;
26920;SDS011;14483;47.844;9.660;2022-08-21T11:06:38;4.22;;;1.05;;
26920;SDS011;14483;47.844;9.660;2022-08-21T11:09:09;2.42;;;0.85;;
26920;SDS011;14483;47.844;9.660;2022-08-21T11:11:39;1.73;;;1.00;;
26920;SDS011;14483;47.844;9.660;2022-08-21T11:14:09;2.75;;;0.75;;
26920;SDS011;14483;47.844;9.660;2022-08-21T11:16:39;1.50;;;0.70;;
26920;SDS011;14483;47.844;9.660;2022-08-21T11:19:08;1.77;;;0.80;;
26920;SDS011;14483;47.844;9.660;2022-08-21T11:21:37;0.80;;;0.60;;
26920;SDS011;14483;47.844;9.660;2022-08-21T11:24:12;4.38;;;0.98;;
26920;SDS011;14483;47.844;9.660;2022-08-21T11:26:43;4.60;;;0.90;;
26920;SDS011;14483;47.844;9.660;2022-08-21T11:29:11;2.28;;;0.80;;
26920;SDS011;14483;47.844;9.660;2022-08-21T11:34:28;2.92;;;0.63;;
26920;SDS011;14483;47.844;9.660;2022-08-21T11:36:59;1.80;;;0.70;;
26920;SDS011;14483;47.844;9.660;2022-08-21T11:39:30;2.35;;;0.80;;
26920;SDS011;14483;47.844;9.660;2022-08-21T11:42:02;1.67;;;0.90;;
26920;SDS011;14483;47.844;9.660;2022-08-21T11:44:36;2.83;;;0.80;;
26920;SDS011;14483;47.844;9.660;2022-08-21T11:47:05;4.97;;;0.70;;
26920;SDS011;14483;47.844;9.660;2022-08-21T11:52:26;3.92;;;1.30;;
26920;SDS011;14483;47.844;9.660;2022-08-21T11:54:56;1.00;;;0.60;;
26920;SDS011;14483;47.844;9.660;2022-08-21T11:57:26;2.30;;;0.70;;
26920;SDS011;14483;47.844;9.660;2022-08-21T11:59:56;1.38;;;0.60;;
26920;SDS011;14483;47.844;9.660;2022-08-21T12:02:24;1.75;;;0.70;;
26920;SDS011;14483;47.844;9.660;2022-08-21T12:04:55;4.00;;;0.68;;
26920;SDS011;14483;47.844;9.660;2022-08-21T12:07:31;2.20;;;0.73;;
26920;SDS011;14483;47.844;9.660;2022-08-21T12:09:58;1.83;;;0.80;;
26920;SDS011;14483;47.844;9.660;2022-08-21T12:12:27;1.77;;;1.30;;
26920;SDS011;14483;47.844;9.660;2022-08-21T12:15:05;2.10;;;0.60;;
26920;SDS011;14483;47.844;9.660;2022-08-21T12:17:35;2.85;;;0.80;;
26920;SDS011;14483;47.844;9.660;2022-08-21T12:22:47;2.45;;;0.55;;
26920;SDS011;14483;47.844;9.660;2022-08-21T12:25:16;2.63;;;0.55;;
26920;SDS011;14483;47.844;9.660;2022-08-21T12:27:46;1.48;;;0.70;;
26920;SDS011;14483;47.844;9.660;2022-08-21T12:30:19;3.58;;;0.70;;
26920;SDS011;14483;47.844;9.660;2022-08-21T12:32:53;1.60;;;0.43;;
26920;SDS011;14483;47.844;9.660;2022-08-21T12:35:20;1.70;;;0.55;;
26920;SDS011;14483;47.844;9.660;2022-08-21T12:37:50;1.67;;;0.60;;
26920;SDS011;14483;47.844;9.660;2022-08-21T12:40:18;0.80;;;0.50;;
26920;SDS011;14483;47.844;9.660;2022-08-21T12:42:48;0.68;;;0.40;;
26920;SDS011;14483;47.844;9.660;2022-08-21T12:45:17;1.02;;;0.50;;
26920;SDS011;14483;47.844;9.660;2022-08-21T12:47:45;2.13;;;0.50;;
26920;SDS011;14483;47.844;9.660;2022-08-21T12:50:15;1.05;;;0.50;;
26920;SDS011;14483;47.844;9.660;2022-08-21T12:52:44;4.45;;;0.50;;
26920;SDS011;14483;47.844;9.660;2022-08-21T12:55:11;2.00;;;0.50;;
26920;SDS011;14483;47.844;9.660;2022-08-21T12:57:39;1.85;;;0.60;;
26920;SDS011;14483;47.844;9.660;2022-08-21T13:00:09;3.17;;;0.90;;
26920;SDS011;14483;47.844;9.660;2022-08-21T13:02:37;0.85;;;0.45;;
26920;SDS011;14483;47.844;9.660;2022-08-21T13:05:06;0.98;;;0.50;;
26920;SDS011;14483;47.844;9.660;2022-08-21T13:07:34;1.30;;;0.50;;
26920;SDS011;14483;47.844;9.660;2022-08-21T13:10:03;0.80;;;0.57;;
26920;SDS011;14483;47.844;9.660;2022-08-21T13:12:29;0.90;;;0.50;;
26920;SDS011;14483;47.844;9.660;2022-08-21T13:14:57;1.35;;;0.60;;
26920;SDS011;14483;47.844;9.660;2022-08-21T13:17:26;1.60;;;0.60;;
26920;SDS011;14483;47.844;9.660;2022-08-21T13:19:53;1.25;;;0.50;;
26920;SDS011;14483;47.844;9.660;2022-08-21T13:22:20;1.27;;;0.40;;
26920;SDS011;14483;47.844;9.660;2022-08-21T13:24:47;1.35;;;0.60;;
26920;SDS011;14483;47.844;9.660;2022-08-21T13:27:17;1.80;;;0.60;;
26920;SDS011;14483;47.844;9.660;2022-08-21T13:29:44;1.80;;;0.50;;
26920;SDS011;14483;47.844;9.660;2022-08-21T13:32:13;0.90;;;0.60;;
26920;SDS011;14483;47.844;9.660;2022-08-21T13:34:45;1.95;;;0.77;;
26920;SDS011;14483;47.844;9.660;2022-08-21T13:37:12;1.92;;;1.13;;
26920;SDS011;14483;47.844;9.660;2022-08-21T13:39:40;2.63;;;0.95;;
26920;SDS011;14483;47.844;9.660;2022-08-21T13:42:09;1.58;;;0.73;;
26920;SDS011;14483;47.844;9.660;2022-08-21T13:44:39;1.67;;;0.60;;
26920;SDS011;14483;47.844;9.660;2022-08-21T13:47:06;1.67;;;0.60;;
26920;SDS011;14483;47.844;9.660;2022-08-21T13:49:34;0.95;;;0.60;;
26920;SDS011;14483;47.844;9.660;2022-08-21T13:52:03;1.35;;;0.68;;
26920;SDS011;14483;47.844;9.660;2022-08-21T13:54:33;2.13;;;0.80;;
26920;SDS011;14483;47.844;9.660;2022-08-21T13:57:00;2.80;;;1.08;;
26920;SDS011;14483;47.844;9.660;2022-08-21T13:59:27;4.47;;;0.95;;
26920;SDS011;14483;47.844;9.660;2022-08-21T14:01:54;3.55;;;0.70;;
26920;SDS011;14483;47.844;9.660;2022-08-21T14:04:25;1.50;;;0.98;;
26920;SDS011;14483;47.844;9.660;2022-08-21T14:06:52;2.05;;;0.57;;
26920;SDS011;14483;47.844;9.660;2022-08-21T14:09:23;0.85;;;0.65;;
26920;SDS011;14483;47.844;9.660;2022-08-21T14:11:50;1.88;;;0.73;;
26920;SDS011;14483;47.844;9.660;2022-08-21T14:14:19;2.42;;;0.65;;
26920;SDS011;14483;47.844;9.660;2022-08-21T14:16:52;1.23;;;0.80;;
26920;SDS011;14483;47.844;9.660;2022-08-21T14:19:20;1.33;;;0.80;;
26920;SDS011;14483;47.844;9.660;2022-08-21T14:21:47;1.63;;;0.60;;
26920;SDS011;14483;47.844;9.660;2022-08-21T14:24:24;1.58;;;0.70;;
26920;SDS011;14483;47.844;9.660;2022-08-21T14:26:53;0.77;;;0.63;;
26920;SDS011;14483;47.844;9.660;2022-08-21T14:29:21;1.83;;;0.70;;
26920;SDS011;14483;47.844;9.660;2022-08-21T14:31:49;0.70;;;0.60;;
26920;SDS011;14483;47.844;9.660;2022-08-21T14:34:15;0.95;;;0.70;;
26920;SDS011;14483;47.844;9.660;2022-08-21T14:36:42;0.90;;;0.60;;
26920;SDS011;14483;47.844;9.660;2022-08-21T14:39:09;1.27;;;0.77;;
26920;SDS011;14483;47.844;9.660;2022-08-21T14:41:35;6.22;;;1.15;;
26920;SDS011;14483;47.844;9.660;2022-08-21T14:44:03;1.70;;;1.20;;
26920;SDS011;14483;47.844;9.660;2022-08-21T14:46:30;1.20;;;0.90;;
26920;SDS011;14483;47.844;9.660;2022-08-21T14:48:57;1.63;;;1.27;;
26920;SDS011;14483;47.844;9.660;2022-08-21T14:51:23;1.23;;;0.93;;
26920;SDS011;14483;47.844;9.660;2022-08-21T14:53:50;1.80;;;0.90;;
26920;SDS011;14483;47.844;9.660;2022-08-21T14:56:16;2.25;;;1.00;;
26920;SDS011;14483;47.844;9.660;2022-08-21T14:58:46;1.27;;;0.90;;
26920;SDS011;14483;47.844;9.660;2022-08-21T15:01:15;1.98;;;1.20;;
26920;SDS011;14483;47.844;9.660;2022-08-21T15:03:43;2.17;;;1.10;;